createdAt,value
2019-04-03T00:01:16.861Z,8.63
2019-04-03T00:03:46.029Z,11.77
2019-04-03T00:06:15.139Z,8.40
2019-04-03T00:08:44.206Z,7.50
2019-04-03T00:11:13.400Z,10.47
2019-04-03T00:13:42.604Z,8.63
2019-04-03T00:16:11.759Z,11.47
2019-04-03T00:18:40.794Z,14.73
2019-04-03T00:21:09.905Z,9.43
2019-04-03T00:23:38.915Z,12.53
2019-04-03T00:26:08.034Z,9.10
2019-04-03T00:28:37.056Z,7.07
2019-04-03T00:31:25.192Z,5.77
2019-04-03T00:33:54.241Z,7.33
2019-04-03T00:36:23.845Z,8.67
2019-04-03T00:39:12.064Z,7.90
2019-04-03T00:42:00.217Z,11.47
2019-04-03T00:44:32.367Z,9.13
2019-04-03T00:47:08.708Z,10.77
2019-04-03T00:49:57.137Z,11.00
2019-04-03T00:52:38.606Z,9.87
2019-04-03T00:55:27.180Z,11.23
2019-04-03T00:57:59.980Z,14.07
2019-04-03T01:00:48.189Z,10.73
2019-04-03T01:03:20.638Z,11.57
2019-04-03T01:05:49.712Z,14.03
2019-04-03T01:08:18.791Z,10.00
2019-04-03T01:10:47.938Z,10.40
2019-04-03T01:13:36.255Z,13.60
2019-04-03T01:16:24.603Z,10.10
2019-04-03T01:18:53.704Z,10.93
2019-04-03T01:21:22.767Z,8.17
2019-04-03T01:24:11.078Z,6.50
2019-04-03T01:26:59.239Z,6.97
2019-04-03T01:29:32.043Z,6.80
2019-04-03T01:32:20.258Z,8.77
2019-04-03T01:34:55.770Z,7.80
2019-04-03T01:37:43.968Z,7.37
2019-04-03T01:40:13.083Z,9.60
2019-04-03T01:42:42.165Z,14.53
2019-04-03T01:45:11.263Z,7.47
2019-04-03T01:47:40.359Z,9.17
2019-04-03T01:50:09.417Z,8.40
2019-04-03T01:52:38.463Z,7.50
2019-04-03T01:55:07.566Z,7.53
2019-04-03T01:57:37.102Z,5.13
2019-04-03T02:00:07.718Z,6.27
2019-04-03T02:02:38.672Z,5.00
2019-04-03T02:05:27.215Z,4.33
2019-04-03T02:07:56.290Z,8.13
2019-04-03T02:10:25.611Z,7.30
2019-04-03T02:12:54.659Z,6.23
2019-04-03T02:15:23.966Z,6.73
2019-04-03T02:17:55.119Z,6.47
2019-04-03T02:20:24.616Z,6.37
2019-04-03T02:22:54.697Z,5.33
2019-04-03T02:25:23.761Z,8.13
2019-04-03T02:27:52.833Z,6.60
2019-04-03T02:30:21.897Z,7.53
2019-04-03T02:32:50.983Z,6.60
2019-04-03T02:35:20.161Z,7.53
2019-04-03T02:37:50.708Z,7.83
2019-04-03T02:40:20.037Z,7.50
2019-04-03T02:42:49.103Z,9.50
2019-04-03T02:45:18.187Z,7.77
2019-04-03T02:47:47.096Z,7.93
2019-04-03T02:50:24.947Z,7.27
2019-04-03T02:52:58.001Z,7.73
2019-04-03T02:55:25.788Z,8.67
2019-04-03T02:57:55.258Z,7.83
2019-04-03T03:00:24.427Z,6.17
2019-04-03T03:02:53.562Z,11.17
2019-04-03T03:05:27.005Z,7.40
2019-04-03T03:07:53.691Z,12.17
2019-04-03T03:10:22.707Z,9.77
2019-04-03T03:12:52.037Z,9.97
2019-04-03T03:15:43.535Z,10.90
2019-04-03T03:18:12.109Z,11.40
2019-04-03T03:20:41.821Z,11.67
2019-04-03T03:23:11.058Z,12.20
2019-04-03T03:25:40.279Z,13.07
2019-04-03T03:28:13.207Z,13.53
2019-04-03T03:30:46.381Z,11.93
2019-04-03T03:33:28.400Z,13.73
2019-04-03T03:35:46.999Z,12.80
2019-04-03T03:38:13.084Z,13.00
2019-04-03T03:40:42.614Z,14.47
2019-04-03T03:43:12.275Z,13.60
2019-04-03T03:45:41.641Z,14.20
2019-04-03T03:48:11.301Z,14.20
2019-04-03T03:50:41.055Z,17.27
2019-04-03T03:53:29.595Z,16.13
2019-04-03T03:55:59.773Z,15.73
2019-04-03T03:58:29.397Z,15.47
2019-04-03T04:01:00.446Z,16.13
2019-04-03T04:03:29.717Z,15.90
2019-04-03T04:06:18.102Z,15.83
2019-04-03T04:08:47.326Z,15.57
2019-04-03T04:11:54.767Z,15.67
2019-04-03T04:14:26.010Z,15.80
2019-04-03T04:16:57.053Z,16.60
2019-04-03T04:19:46.299Z,18.53
2019-04-03T04:22:17.487Z,17.90
2019-04-03T04:24:46.362Z,18.80
2019-04-03T04:27:15.875Z,18.77
2019-04-03T04:29:45.734Z,20.67
2019-04-03T04:32:15.388Z,23.83
2019-04-03T04:34:44.528Z,19.13
2019-04-03T04:37:13.646Z,21.90
2019-04-03T04:39:42.703Z,20.67
2019-04-03T04:42:11.753Z,22.40
2019-04-03T04:44:41.524Z,23.13
2019-04-03T04:47:29.774Z,22.57
2019-04-03T04:50:25.353Z,25.17
2019-04-03T04:53:16.008Z,25.87
2019-04-03T04:55:45.306Z,24.43
2019-04-03T04:58:33.578Z,25.37
2019-04-03T05:01:02.710Z,29.07
2019-04-03T05:03:35.451Z,26.10
2019-04-03T05:06:06.800Z,28.73
2019-04-03T05:08:39.499Z,26.43
2019-04-03T05:11:27.797Z,30.33
2019-04-03T05:14:00.275Z,29.53
2019-04-03T05:19:18.947Z,29.70
2019-04-03T05:22:07.331Z,28.00
2019-04-03T05:24:54.773Z,29.90
2019-04-03T05:27:27.017Z,26.67
2019-04-03T05:29:56.127Z,29.83
2019-04-03T05:32:44.404Z,33.53
2019-04-03T05:35:32.630Z,33.70
2019-04-03T05:38:01.588Z,33.80
2019-04-03T05:40:30.696Z,35.17
2019-04-03T05:43:00.298Z,34.17
2019-04-03T05:45:29.507Z,34.90
2019-04-03T05:47:58.584Z,36.47
2019-04-03T05:50:27.973Z,34.40
2019-04-03T05:52:57.110Z,35.37
2019-04-03T05:55:26.371Z,38.20
2019-04-03T05:57:55.641Z,36.27
2019-04-03T06:00:24.803Z,39.17
2019-04-03T06:02:56.788Z,39.17
2019-04-03T06:05:24.535Z,37.03
2019-04-03T06:07:53.760Z,38.83
2019-04-03T06:10:22.862Z,43.33
2019-04-03T06:12:51.904Z,43.57
2019-04-03T06:15:21.962Z,41.60
2019-04-03T06:17:54.283Z,43.37
2019-04-03T06:20:22.553Z,38.23
2019-04-03T06:22:51.471Z,50.13
2019-04-03T06:25:20.796Z,40.50
2019-04-03T06:27:49.889Z,40.40
2019-04-03T06:31:08.415Z,39.63
2019-04-03T06:37:08.342Z,42.50
2019-04-03T06:39:39.379Z,42.90
2019-04-03T06:42:09.028Z,38.07
2019-04-03T06:44:57.449Z,36.80
2019-04-03T06:47:26.678Z,35.97
2019-04-03T06:50:05.484Z,38.67
2019-04-03T06:52:34.700Z,36.63
2019-04-03T06:55:04.285Z,37.20
2019-04-03T06:57:34.100Z,40.40
2019-04-03T07:00:12.701Z,38.53
2019-04-03T07:03:10.011Z,37.47
2019-04-03T07:05:42.125Z,33.90
2019-04-03T07:08:11.572Z,36.60
2019-04-03T07:10:41.184Z,33.93
2019-04-03T07:13:10.335Z,34.77
2019-04-03T07:15:43.048Z,35.23
2019-04-03T07:18:12.244Z,28.37
2019-04-03T07:20:41.489Z,26.50
2019-04-03T07:23:10.838Z,28.90
2019-04-03T07:25:40.290Z,25.90
2019-04-03T07:28:09.761Z,27.57
2019-04-03T07:30:39.253Z,27.23
2019-04-03T07:33:08.818Z,23.47
2019-04-03T07:35:40.203Z,24.77
2019-04-03T07:38:09.276Z,22.83
2019-04-03T07:40:38.778Z,22.00
2019-04-03T07:43:08.267Z,23.03
2019-04-03T07:45:43.734Z,20.67
2019-04-03T07:48:12.469Z,19.17
2019-04-03T07:50:42.312Z,18.50
2019-04-03T07:53:11.483Z,22.37
2019-04-03T07:55:43.322Z,25.03
2019-04-03T07:58:11.723Z,19.97
2019-04-03T08:00:41.528Z,20.33
2019-04-03T08:03:10.803Z,19.87
2019-04-03T08:05:40.028Z,19.67
2019-04-03T08:08:10.800Z,21.70
2019-04-03T08:10:40.354Z,19.90
2019-04-03T08:13:09.652Z,18.13
2019-04-03T08:15:38.956Z,19.97
2019-04-03T08:18:08.395Z,17.00
2019-04-03T08:20:37.715Z,18.37
2019-04-03T08:23:06.886Z,19.03
2019-04-03T08:25:36.248Z,17.10
2019-04-03T08:28:05.352Z,19.10
2019-04-03T08:30:34.983Z,14.93
2019-04-03T08:33:15.100Z,14.53
2019-04-03T08:35:35.982Z,15.57
2019-04-03T08:38:05.730Z,14.37
2019-04-03T08:40:35.035Z,15.73
2019-04-03T08:43:04.528Z,13.00
2019-04-03T08:45:33.635Z,15.00
2019-04-03T08:48:06.192Z,11.50
2019-04-03T08:50:35.238Z,12.90
2019-04-03T08:53:05.837Z,14.67
2019-04-03T08:55:35.548Z,13.37
2019-04-03T08:58:05.590Z,15.30
2019-04-03T09:00:35.047Z,12.40
2019-04-03T09:03:04.492Z,11.80
2019-04-03T09:05:34.709Z,11.77
2019-04-03T09:08:04.215Z,15.00
2019-04-03T09:10:36.526Z,11.77
2019-04-03T09:13:16.279Z,11.23
2019-04-03T09:15:35.670Z,11.00
2019-04-03T09:18:06.454Z,12.63
2019-04-03T09:20:36.277Z,17.00
2019-04-03T09:23:05.418Z,10.53
2019-04-03T09:25:35.107Z,10.30
2019-04-03T09:28:05.187Z,9.33
2019-04-03T09:30:34.765Z,11.97
2019-04-03T09:33:04.443Z,12.53
2019-04-03T09:35:33.629Z,8.50
2019-04-03T09:38:02.763Z,9.63
2019-04-03T09:40:32.336Z,12.30
2019-04-03T09:43:01.549Z,16.90
2019-04-03T09:45:31.407Z,8.07
2019-04-03T09:48:00.551Z,9.77
2019-04-03T09:50:33.307Z,7.47
2019-04-03T09:53:02.910Z,9.90
2019-04-03T09:55:36.047Z,9.57
2019-04-03T09:58:04.271Z,8.27
2019-04-03T10:00:33.473Z,6.57
2019-04-03T10:03:05.370Z,10.87
2019-04-03T10:05:33.422Z,7.37
2019-04-03T10:08:02.595Z,8.07
2019-04-03T10:10:31.718Z,8.90
2019-04-03T10:13:01.543Z,7.87
2019-04-03T10:15:31.180Z,5.97
2019-04-03T10:18:01.049Z,6.60
2019-04-03T10:20:36.682Z,7.00
2019-04-03T10:23:06.656Z,9.20
2019-04-03T10:25:37.129Z,6.53
2019-04-03T10:28:06.960Z,9.80
2019-04-03T10:30:36.287Z,9.03
2019-04-03T10:33:05.612Z,7.63
2019-04-03T10:35:35.538Z,8.60
2019-04-03T10:38:06.328Z,8.80
2019-04-03T10:40:35.547Z,11.53
2019-04-03T10:43:06.215Z,8.53
2019-04-03T10:45:37.096Z,10.37
2019-04-03T10:48:06.456Z,9.33
2019-04-03T10:50:37.913Z,8.47
2019-04-03T10:53:06.709Z,7.90
2019-04-03T10:55:35.787Z,9.47
2019-04-03T10:58:07.120Z,9.27
2019-04-03T11:00:37.424Z,9.63
2019-04-03T11:03:06.559Z,11.97
2019-04-03T11:05:35.718Z,8.77
2019-04-03T11:08:04.876Z,7.40
2019-04-03T11:10:34.259Z,6.57
2019-04-03T11:13:03.926Z,6.07
2019-04-03T11:15:33.676Z,5.10
2019-04-03T11:18:05.898Z,5.60
2019-04-03T11:20:40.303Z,5.50
2019-04-03T11:23:11.179Z,5.57
2019-04-03T11:25:45.830Z,10.10
2019-04-03T11:28:16.196Z,6.73
2019-04-03T11:30:46.548Z,5.90
2019-04-03T11:33:20.188Z,3.97
2019-04-03T11:36:17.891Z,5.80
2019-04-03T11:38:47.747Z,3.73
2019-04-03T11:41:24.185Z,3.70
2019-04-03T11:43:55.202Z,3.27
2019-04-03T11:46:25.366Z,3.60
2019-04-03T11:48:55.397Z,3.83
2019-04-03T11:51:28.990Z,5.60
2019-04-03T11:53:57.668Z,4.67
2019-04-03T11:56:27.181Z,5.17
2019-04-03T11:58:56.362Z,5.87
2019-04-03T12:01:25.796Z,5.90
2019-04-03T12:03:55.191Z,4.90
2019-04-03T12:06:24.808Z,8.80
2019-04-03T12:08:54.517Z,7.03
2019-04-03T12:11:24.008Z,6.33
2019-04-03T12:13:53.040Z,7.93
2019-04-03T12:16:24.763Z,7.67
2019-04-03T12:18:54.097Z,7.77
2019-04-03T12:21:23.543Z,11.63
2019-04-03T12:23:52.822Z,6.93
2019-04-03T12:26:21.971Z,10.33
2019-04-03T12:28:51.006Z,7.70
2019-04-03T12:31:20.432Z,7.87
2019-04-03T12:33:56.465Z,7.43
2019-04-03T12:36:21.447Z,7.33
2019-04-03T12:38:50.592Z,6.33
2019-04-03T12:41:19.923Z,6.87
2019-04-03T12:43:50.031Z,6.67
2019-04-03T12:46:36.311Z,5.90
2019-04-03T12:49:07.786Z,6.30
2019-04-03T12:51:37.044Z,5.60
2019-04-03T12:54:06.217Z,6.00
2019-04-03T12:56:35.315Z,6.00
2019-04-03T12:59:07.440Z,5.50
2019-04-03T13:01:35.585Z,8.07
2019-04-03T13:04:04.851Z,6.90
2019-04-03T13:06:34.821Z,6.05
2019-04-03T13:09:08.220Z,6.33
2019-04-03T13:11:37.618Z,5.87
2019-04-03T13:14:07.049Z,5.47
2019-04-03T13:16:36.538Z,7.70
2019-04-03T13:19:05.898Z,3.93
2019-04-03T13:21:34.973Z,3.37
2019-04-03T13:24:04.202Z,3.07
2019-04-03T13:26:33.223Z,3.67
2019-04-03T13:29:02.324Z,4.63
2019-04-03T13:31:31.413Z,3.67
2019-04-03T13:34:01.163Z,2.57
2019-04-03T13:36:30.244Z,5.37
2019-04-03T13:39:01.246Z,2.73
2019-04-03T13:41:33.980Z,3.70
2019-04-03T13:44:01.517Z,3.13
2019-04-03T13:46:30.972Z,3.13
2019-04-03T13:49:00.380Z,3.55
2019-04-03T13:51:29.521Z,3.83
2019-04-03T13:53:58.991Z,3.53
2019-04-03T13:56:28.299Z,2.87
2019-04-03T13:58:57.983Z,5.83
2019-04-03T14:01:28.413Z,3.57
2019-04-03T14:03:57.606Z,3.03
2019-04-03T14:06:26.730Z,3.20
2019-04-03T14:08:55.747Z,3.13
2019-04-03T14:11:28.457Z,2.63
2019-04-03T14:13:58.950Z,2.97
2019-04-03T14:16:28.327Z,2.73
2019-04-03T14:18:57.993Z,4.50
2019-04-03T14:21:27.807Z,3.07
2019-04-03T14:23:58.301Z,3.63
2019-04-03T14:26:27.524Z,2.93
2019-04-03T14:28:56.761Z,3.03
2019-04-03T14:31:34.836Z,2.70
2019-04-03T14:33:57.388Z,3.97
2019-04-03T14:36:27.928Z,3.40
2019-04-03T14:38:57.258Z,3.57
2019-04-03T14:41:26.367Z,3.67
2019-04-03T14:43:55.816Z,3.03
2019-04-03T14:46:25.056Z,3.27
2019-04-03T14:48:54.135Z,4.93
2019-04-03T14:51:24.004Z,3.30
2019-04-03T14:53:53.551Z,4.10
2019-04-03T14:56:23.371Z,4.07
2019-04-03T14:58:52.677Z,4.13
2019-04-03T15:01:21.855Z,3.93
2019-04-03T15:03:50.943Z,4.03
2019-04-03T15:06:19.947Z,4.87
2019-04-03T15:08:49.195Z,5.13
2019-04-03T15:11:20.832Z,4.47
2019-04-03T15:13:49.817Z,4.00
2019-04-03T15:16:19.882Z,5.00
2019-04-03T15:18:49.177Z,5.63
2019-04-03T15:21:23.714Z,5.20
2019-04-03T15:23:52.335Z,4.93
2019-04-03T15:26:22.308Z,5.47
2019-04-03T15:28:52.550Z,5.23
2019-04-03T15:31:23.874Z,5.00
2019-04-03T15:33:53.135Z,5.60
2019-04-03T15:36:23.196Z,6.00
2019-04-03T15:38:59.680Z,5.67
2019-04-03T15:44:19.821Z,5.23
2019-04-03T15:46:47.780Z,5.43
2019-04-03T15:49:16.798Z,5.07
2019-04-03T15:51:46.232Z,6.33
2019-04-03T15:54:16.106Z,5.43
2019-04-03T15:56:46.031Z,5.30
2019-04-03T15:59:15.609Z,4.87
2019-04-03T16:01:44.713Z,4.37
2019-04-03T16:04:13.934Z,4.90
2019-04-03T16:06:42.943Z,4.73
2019-04-03T16:09:12.405Z,4.60
2019-04-03T16:11:41.608Z,4.57
2019-04-03T16:14:10.723Z,4.90
2019-04-03T16:16:40.303Z,4.93
2019-04-03T16:19:10.959Z,5.03
2019-04-03T16:21:40.503Z,5.60
2019-04-03T16:24:12.550Z,5.47
2019-04-03T16:26:40.670Z,5.27
2019-04-03T16:29:09.927Z,5.13
2019-04-03T16:31:38.995Z,5.97
2019-04-03T16:34:10.685Z,5.47
2019-04-03T16:36:38.724Z,5.90
2019-04-03T16:39:08.346Z,5.27
2019-04-03T16:41:38.370Z,4.63
2019-04-03T16:44:07.932Z,5.23
2019-04-03T16:46:37.000Z,5.13
2019-04-03T16:49:07.550Z,5.80
2019-04-03T16:51:36.944Z,5.33
2019-04-03T16:54:06.444Z,5.60
2019-04-03T16:56:38.193Z,4.77
2019-04-03T16:59:07.429Z,5.20
2019-04-03T17:01:37.396Z,5.23
2019-04-03T17:04:09.186Z,4.93
2019-04-03T17:06:37.717Z,5.53
2019-04-03T17:09:08.221Z,5.50
2019-04-03T17:11:37.371Z,4.50
2019-04-03T17:14:06.437Z,3.70
2019-04-03T17:16:35.629Z,3.73
2019-04-03T17:19:06.996Z,4.00
2019-04-03T17:21:37.568Z,4.70
2019-04-03T17:24:07.219Z,2.73
2019-04-03T17:26:47.819Z,3.67
2019-04-03T17:29:07.184Z,3.27
2019-04-03T17:31:36.472Z,3.17
2019-04-03T17:34:07.166Z,3.70
2019-04-03T17:36:36.803Z,3.77
2019-04-03T17:39:08.856Z,3.80
2019-04-03T17:41:57.047Z,4.27
2019-04-03T17:44:26.142Z,4.20
2019-04-03T17:46:55.235Z,5.13
2019-04-03T17:49:33.926Z,4.23
2019-04-03T17:52:22.151Z,4.70
2019-04-03T17:54:51.124Z,4.50
2019-04-03T17:57:20.166Z,5.10
2019-04-03T17:59:49.548Z,4.37
2019-04-03T18:02:18.767Z,4.47
2019-04-03T18:05:10.347Z,4.20
2019-04-03T18:07:39.516Z,4.13
2019-04-03T18:10:12.426Z,4.30
2019-04-03T18:12:39.647Z,5.00
2019-04-03T18:15:28.118Z,5.43
2019-04-03T18:18:09.268Z,5.03
2019-04-03T18:20:38.607Z,4.83
2019-04-03T18:23:10.494Z,5.60
2019-04-03T18:25:38.485Z,5.47
2019-04-03T18:28:26.643Z,6.00
2019-04-03T18:30:55.694Z,5.53
2019-04-03T18:33:24.758Z,6.50
2019-04-03T18:35:56.522Z,5.27
2019-04-03T18:38:24.656Z,5.77
2019-04-03T18:40:53.781Z,6.03
2019-04-03T18:43:22.915Z,6.73
2019-04-03T18:45:52.065Z,6.20
2019-04-03T18:48:52.584Z,7.77
2019-04-03T18:51:30.189Z,16.47
2019-04-03T18:53:59.296Z,24.20
2019-04-03T18:56:28.375Z,33.07
2019-04-03T18:58:57.695Z,36.67
2019-04-03T19:01:26.755Z,36.77
2019-04-03T19:03:55.787Z,19.67
2019-04-03T19:06:24.975Z,13.07
2019-04-03T19:08:54.168Z,10.87
2019-04-03T19:11:23.151Z,9.50
2019-04-03T19:13:52.151Z,8.27
2019-04-03T19:16:29.455Z,7.97
2019-04-03T19:18:51.956Z,8.77
2019-04-03T19:21:25.561Z,7.00
2019-04-03T19:23:53.635Z,7.77
2019-04-03T19:26:22.493Z,7.60
2019-04-03T19:28:51.617Z,7.37
2019-04-03T19:31:20.712Z,7.50
2019-04-03T19:33:49.787Z,7.13
2019-04-03T19:36:38.079Z,8.07
2019-04-03T19:39:07.937Z,8.10
2019-04-03T19:41:36.955Z,8.57
2019-04-03T19:44:05.958Z,8.27
2019-04-03T19:46:35.055Z,8.30
2019-04-03T19:49:04.079Z,7.60
2019-04-03T19:51:33.048Z,8.40
2019-04-03T19:54:02.099Z,8.03
2019-04-03T19:56:31.255Z,8.00
2019-04-03T19:59:00.277Z,7.77
2019-04-03T20:01:29.340Z,7.77
2019-04-03T20:03:58.339Z,8.83
2019-04-03T20:06:27.391Z,8.23
2019-04-03T20:09:00.883Z,8.60
2019-04-03T20:11:30.298Z,8.87
2019-04-03T20:13:59.351Z,8.47
2019-04-03T20:16:28.339Z,9.40
2019-04-03T20:18:57.450Z,9.03
2019-04-03T20:21:45.629Z,9.77
2019-04-03T20:24:14.734Z,9.33
2019-04-03T20:26:46.337Z,9.40
2019-04-03T20:29:33.655Z,9.73
2019-04-03T20:32:21.793Z,9.67
2019-04-03T20:34:50.792Z,10.83
2019-04-03T20:37:38.921Z,10.53
2019-04-03T20:40:17.711Z,11.17
2019-04-03T20:43:05.907Z,10.67
2019-04-03T20:45:38.610Z,11.40
2019-04-03T20:48:07.635Z,11.20
2019-04-03T20:50:38.170Z,10.70
2019-04-03T20:53:07.307Z,12.00
2019-04-03T20:55:36.388Z,12.43
2019-04-03T20:58:06.624Z,11.83
2019-04-03T21:00:35.900Z,13.57
2019-04-03T21:03:04.970Z,12.93
2019-04-03T21:05:34.095Z,13.27
2019-04-03T21:08:03.127Z,12.60
2019-04-03T21:10:32.141Z,13.67
2019-04-03T21:13:01.255Z,13.03
2019-04-03T21:15:30.284Z,16.93
2019-04-03T21:17:59.367Z,13.63
2019-04-03T21:20:28.503Z,14.37
2019-04-03T21:22:57.585Z,15.77
2019-04-03T21:25:26.643Z,14.00
2019-04-03T21:27:55.999Z,14.60
2019-04-03T21:30:25.081Z,13.90
2019-04-03T21:32:54.127Z,14.47
2019-04-03T21:35:23.152Z,14.00
2019-04-03T21:38:11.468Z,13.03
2019-04-03T21:40:40.558Z,11.87
2019-04-03T21:43:09.539Z,12.97
2019-04-03T21:45:39.085Z,11.80
2019-04-03T21:48:08.063Z,12.70
2019-04-03T21:50:37.091Z,12.90
2019-04-03T21:53:06.258Z,12.90
2019-04-03T21:55:35.308Z,11.83
2019-04-03T21:58:04.365Z,13.37
2019-04-03T22:01:18.232Z,12.07
2019-04-03T22:04:06.440Z,12.33
2019-04-03T22:06:35.514Z,13.33
2019-04-03T22:09:07.242Z,12.70
2019-04-03T22:11:36.231Z,13.33
2019-04-03T22:14:05.303Z,12.43
2019-04-03T22:17:12.670Z,13.77
2019-04-03T22:20:00.884Z,13.70
2019-04-03T22:22:33.715Z,14.10
2019-04-03T22:25:03.356Z,14.10
2019-04-03T22:27:32.370Z,14.83
2019-04-03T22:30:01.416Z,14.30
2019-04-03T22:32:58.626Z,14.17
2019-04-03T22:35:28.054Z,16.07
2019-04-03T22:37:57.302Z,17.20
2019-04-03T22:40:30.027Z,17.50
2019-04-03T22:42:59.091Z,15.90
2019-04-03T22:45:58.811Z,17.20
2019-04-03T22:48:27.742Z,17.30
2019-04-03T22:51:16.234Z,17.03
2019-04-03T22:53:51.594Z,16.47
2019-04-03T22:56:20.600Z,16.57
2019-04-03T22:58:52.588Z,17.07
2019-04-03T23:01:20.589Z,15.57
2019-04-03T23:03:49.659Z,15.57
2019-04-03T23:06:39.075Z,16.30
2019-04-03T23:12:09.578Z,17.00
2019-04-03T23:14:57.767Z,14.57
2019-04-03T23:17:33.688Z,15.10
2019-04-03T23:20:10.709Z,15.67
2019-04-03T23:23:01.859Z,16.10
2019-04-03T23:25:35.374Z,16.17
2019-04-03T23:28:04.526Z,17.87
2019-04-03T23:30:33.627Z,17.73
2019-04-03T23:33:02.576Z,17.83
2019-04-03T23:35:31.652Z,17.73
2019-04-03T23:38:00.631Z,17.53
2019-04-03T23:40:48.792Z,18.93
2019-04-03T23:43:17.904Z,16.60
2019-04-03T23:45:46.965Z,16.97
2019-04-03T23:48:18.346Z,17.43
2019-04-03T23:50:47.239Z,17.93
2019-04-03T23:53:16.319Z,18.00
2019-04-03T23:55:45.399Z,19.13
2019-04-03T23:58:14.563Z,17.40
